Time;durP1;ratioP1;P1;durP2;ratioP2;P2;SDS_P1;SDS_P2;PMS_P1;PMS_P2;Temp;Humidity;BMP_temperature;BMP_pressure;BME280_temperature;BME280_humidity;BME280_pressure;Samples;Min_cycle;Max_cycle;Signal;HPM_P1;HPM_P2
2021/11/23 00:02:20;;;;;;;;;23.25;18.25;;;;;11.44;93.92;102370.75;5067482;28;45414;-76
2021/11/23 00:04:46;;;;;;;;;20.75;15.50;;;;;11.37;94.14;102371.97;5053027;28;45661;-77
2021/11/23 00:07:11;;;;;;;;;18.25;16.25;;;;;11.35;94.05;102359.72;5060015;28;45378;-76
2021/11/23 00:09:36;;;;;;;;;21.50;18.75;;;;;11.55;93.52;102359.69;5051464;28;46257;-76
2021/11/23 00:12:02;;;;;;;;;19.50;16.50;;;;;11.53;93.26;102359.75;5066766;27;45402;-76
2021/11/23 00:14:28;;;;;;;;;17.00;12.00;;;;;11.52;93.13;102360.66;5056940;28;45398;-76
2021/11/23 00:16:53;;;;;;;;;22.75;17.75;;;;;11.50;93.39;102353.72;5056439;28;45302;-76
2021/11/23 00:19:19;;;;;;;;;22.75;18.00;;;;;11.46;93.10;102360.97;5054187;28;47283;-75
2021/11/23 00:21:44;;;;;;;;;20.50;14.75;;;;;11.36;94.12;102361.44;5059189;28;45356;-75
2021/11/23 00:24:10;;;;;;;;;22.25;17.00;;;;;11.29;94.15;102357.34;5057401;28;45401;-76
2021/11/23 00:26:35;;;;;;;;;21.00;16.50;;;;;11.24;94.56;102350.47;5056886;28;45541;-75
2021/11/23 00:29:01;;;;;;;;;29.25;18.50;;;;;11.26;94.88;102353.06;5044187;28;47108;-75
2021/11/23 00:31:26;;;;;;;;;24.25;18.00;;;;;11.27;94.88;102361.84;5052378;28;45338;-75
2021/11/23 00:33:52;;;;;;;;;20.50;17.75;;;;;11.23;94.68;102347.91;5056219;28;45576;-76
2021/11/23 00:36:17;;;;;;;;;20.75;12.75;;;;;11.23;94.92;102338.19;5045805;28;45265;-75
2021/11/23 00:38:45;;;;;;;;;20.50;15.25;;;;;11.21;94.81;102345.31;5055708;28;47225;-75
2021/11/23 00:41:17;;;;;;;;;21.50;16.25;;;;;11.19;94.96;102335.75;5066490;28;45443;-75
2021/11/23 00:43:43;;;;;;;;;21.50;13.75;;;;;11.16;94.90;102346.47;5049406;28;45204;-76
2021/11/23 00:46:08;;;;;;;;;18.25;15.00;;;;;11.16;95.07;102355.25;5061359;28;45260;-75
2021/11/23 00:48:34;;;;;;;;;18.50;14.75;;;;;11.16;94.77;102352.59;5062527;28;46674;-75
2021/11/23 00:50:59;;;;;;;;;20.50;16.50;;;;;11.11;96.09;102345.78;5065519;28;45278;-76
2021/11/23 00:53:25;;;;;;;;;21.75;17.50;;;;;11.21;95.92;102341.81;5044718;28;45308;-75
2021/11/23 00:55:51;;;;;;;;;19.50;12.25;;;;;11.14;95.53;102338.59;5053868;28;45437;-76
2021/11/23 00:58:17;;;;;;;;;20.25;12.75;;;;;11.21;95.22;102340.03;5064309;28;45672;-75
2021/11/23 01:00:42;;;;;;;;;22.25;15.75;;;;;11.19;95.01;102341.03;5049375;28;45546;-75
2021/11/23 01:03:08;;;;;;;;;24.00;18.50;;;;;11.18;95.04;102342.84;5062239;28;45493;-75
2021/11/23 01:05:33;;;;;;;;;25.25;15.75;;;;;11.17;94.78;102340.25;5050175;28;45319;-76
2021/11/23 01:07:59;;;;;;;;;18.25;15.00;;;;;11.19;94.88;102335.75;5042729;28;47081;-76
2021/11/23 01:10:26;;;;;;;;;20.00;17.25;;;;;11.14;94.95;102340.38;5054034;28;45350;-75
2021/11/23 01:12:51;;;;;;;;;19.50;16.50;;;;;11.10;95.49;102344.09;5067544;28;45487;-75
2021/11/23 01:15:17;;;;;;;;;17.75;17.00;;;;;11.07;95.52;102347.72;5051233;28;45316;-75
2021/11/23 01:17:43;;;;;;;;;22.50;18.00;;;;;11.11;96.42;102344.00;5053242;28;46330;-75
2021/11/23 01:20:10;;;;;;;;;26.25;20.75;;;;;11.16;96.29;102351.75;5051116;28;45570;-75
2021/11/23 01:22:37;;;;;;;;;22.25;17.50;;;;;11.10;96.97;102350.25;5060548;28;45442;-75
2021/11/23 01:25:04;;;;;;;;;22.75;15.50;;;;;11.05;97.41;102344.28;5062560;28;45280;-75
2021/11/23 01:27:29;;;;;;;;;24.75;18.25;;;;;11.14;97.03;102348.31;5061934;28;46444;-75
2021/11/23 01:29:54;;;;;;;;;20.25;17.00;;;;;11.14;96.45;102354.44;5051019;28;46028;-75
2021/11/23 01:32:20;;;;;;;;;22.75;17.00;;;;;11.16;96.43;102351.75;5067214;28;45433;-75
2021/11/23 01:34:45;;;;;;;;;15.75;14.25;;;;;11.09;96.24;102348.53;5069905;28;45490;-75
2021/11/23 01:37:11;;;;;;;;;23.75;17.50;;;;;11.10;96.35;102352.88;5048874;28;47379;-75
2021/11/23 01:39:36;;;;;;;;;20.00;13.75;;;;;11.09;96.27;102345.88;5058133;28;45173;-76
2021/11/23 01:42:02;;;;;;;;;21.50;19.50;;;;;11.07;96.22;102338.94;5060236;28;45436;-76
2021/11/23 01:44:28;;;;;;;;;22.75;17.00;;;;;11.03;96.24;102350.56;5061298;28;45154;-75
2021/11/23 01:46:53;;;;;;;;;17.75;15.75;;;;;11.07;96.35;102347.72;5061605;28;45247;-76
2021/11/23 01:49:19;;;;;;;;;30.00;19.00;;;;;11.04;96.59;102341.69;5060197;28;45348;-76
2021/11/23 01:51:44;;;;;;;;;21.50;17.25;;;;;11.09;96.09;102352.94;5062597;28;45574;-76
2021/11/23 01:54:10;;;;;;;;;35.00;20.25;;;;;11.03;95.90;102346.13;5060936;28;45421;-75
2021/11/23 01:56:36;;;;;;;;;25.25;16.00;;;;;10.98;96.00;102342.84;5050836;28;46302;-75
2021/11/23 01:59:02;;;;;;;;;27.00;18.00;;;;;11.00;96.29;102354.22;5065350;28;45355;-75
2021/11/23 02:01:28;;;;;;;;;22.50;19.00;;;;;10.89;96.72;102353.81;5061369;28;45302;-75
2021/11/23 02:03:53;;;;;;;;;21.75;17.00;;;;;10.88;96.92;102352.09;5081454;28;45434;-75
2021/11/23 02:06:19;;;;;;;;;24.75;17.00;;;;;10.89;96.93;102353.81;5050511;28;46296;-76
2021/11/23 02:08:44;;;;;;;;;25.75;17.75;;;;;10.91;96.59;102356.41;5062464;28;45465;-75
2021/11/23 02:11:10;;;;;;;;;24.00;17.00;;;;;10.90;96.58;102352.91;5057964;28;45473;-75
2021/11/23 02:13:35;;;;;;;;;28.75;19.00;;;;;10.90;96.45;102355.53;5062359;28;45489;-75
2021/11/23 02:16:01;;;;;;;;;17.00;14.00;;;;;10.92;96.62;102358.97;5049369;28;45891;-75
2021/11/23 02:18:28;;;;;;;;;25.50;19.75;;;;;10.81;96.33;102363.84;5059606;28;45394;-75
2021/11/23 02:20:54;;;;;;;;;20.75;17.75;;;;;10.77;96.82;102357.84;5059579;28;45424;-75
2021/11/23 02:23:20;;;;;;;;;24.00;16.75;;;;;10.81;96.75;102363.84;5063167;28;45460;-75
2021/11/23 02:25:47;;;;;;;;;26.25;20.25;;;;;10.83;96.62;102367.31;5061368;28;45319;-75
2021/11/23 02:28:12;;;;;;;;;20.75;16.00;;;;;10.82;96.65;102352.38;5061040;28;45485;-75
2021/11/23 02:30:47;;;;;;;;;20.75;16.00;;;;;10.87;96.89;102358.31;5061406;28;45465;-75
2021/11/23 02:33:15;;;;;;;;;19.50;16.25;;;;;10.84;97.13;102347.84;5070821;28;45267;-75
2021/11/23 02:35:40;;;;;;;;;18.50;16.00;;;;;10.76;96.74;102352.59;5061405;28;46196;-75
2021/11/23 02:38:06;;;;;;;;;24.75;18.25;;;;;10.75;96.90;102350.88;5060987;28;45339;-76
2021/11/23 02:40:31;;;;;;;;;21.75;17.75;;;;;10.73;96.68;102342.19;5055841;28;45321;-75
2021/11/23 02:42:57;;;;;;;;;24.75;17.75;;;;;10.72;96.63;102345.75;5060701;28;45302;-75
2021/11/23 02:45:26;;;;;;;;;21.75;16.75;;;;;10.77;96.68;102343.75;5042492;28;46448;-76
2021/11/23 02:47:53;;;;;;;;;16.00;12.00;;;;;10.75;96.66;102337.69;5046556;28;45428;-76
2021/11/23 02:50:19;;;;;;;;;16.00;16.00;;;;;10.71;96.63;102341.38;5056870;28;45500;-76
2021/11/23 02:52:48;;;;;;;;;29.00;19.00;;;;;10.71;96.85;102336.97;5061065;28;45401;-76
2021/11/23 02:55:14;;;;;;;;;15.25;14.25;;;;;10.72;96.59;102338.69;5046696;28;45553;-76
2021/11/23 02:57:40;;;;;;;;;21.00;18.75;;;;;10.68;96.69;102345.00;5072399;28;45678;-76
2021/11/23 03:00:10;;;;;;;;;13.75;12.00;;;;;10.62;97.20;102342.63;5065812;28;45318;-76
2021/11/23 03:02:36;;;;;;;;;20.75;16.25;;;;;10.61;97.36;102353.25;5047406;28;45571;-76
2021/11/23 03:05:04;;;;;;;;;22.00;17.00;;;;;10.58;97.34;102340.16;5048019;28;45378;-76
2021/11/23 03:07:29;;;;;;;;;24.50;19.25;;;;;10.60;96.91;102340.97;5070605;28;45887;-76
2021/11/23 03:09:56;;;;;;;;;15.75;13.00;;;;;10.58;96.78;102333.09;5081416;28;45296;-76
2021/11/23 03:12:24;;;;;;;;;25.25;19.50;;;;;10.58;96.59;102337.53;5057393;27;45420;-76
2021/11/23 03:14:49;;;;;;;;;19.00;16.00;;;;;10.46;97.08;102329.22;5055613;28;45542;-76
2021/11/23 03:17:16;;;;;;;;;22.00;16.00;;;;;10.52;96.98;102322.81;5069760;28;45359;-76
2021/11/23 03:19:43;;;;;;;;;23.25;18.25;;;;;10.50;96.82;102328.16;5045673;28;45327;-76
2021/11/23 03:22:09;;;;;;;;;26.25;18.75;;;;;10.56;96.65;102321.75;5041430;28;45235;-76
2021/11/23 03:24:37;;;;;;;;;25.75;17.50;;;;;10.58;96.72;102311.13;5059950;28;45347;-76
2021/11/23 03:27:03;;;;;;;;;26.50;18.50;;;;;10.88;95.20;102321.25;5065643;28;45432;-76
2021/11/23 03:29:29;;;;;;;;;22.75;16.75;;;;;10.56;95.84;102319.09;5057666;28;45467;-75
2021/11/23 03:31:54;;;;;;;;;23.75;15.00;;;;;10.47;95.97;102315.06;5049502;28;45583;-75
2021/11/23 03:34:21;;;;;;;;;23.00;16.75;;;;;10.45;95.96;102316.94;5060311;28;45337;-75
2021/11/23 03:36:48;;;;;;;;;23.00;17.00;;;;;10.44;96.27;102312.56;5071727;27;45268;-75
2021/11/23 03:39:13;;;;;;;;;30.50;19.50;;;;;10.47;95.59;102316.84;5072024;27;45324;-75
2021/11/23 03:41:39;;;;;;;;;27.00;19.00;;;;;10.41;95.82;102315.34;5053440;28;45363;-75
2021/11/23 03:44:05;;;;;;;;;17.50;14.50;;;;;10.39;95.81;102306.59;5045643;28;46258;-75
2021/11/23 03:46:30;;;;;;;;;25.25;16.75;;;;;10.37;96.09;102316.41;5058857;28;46143;-75
2021/11/23 03:48:56;;;;;;;;;20.25;14.00;;;;;10.39;95.68;102303.97;5067724;27;45752;-77
2021/11/23 03:51:22;;;;;;;;;23.25;19.50;;;;;10.43;95.58;102305.56;5044121;28;45449;-77
2021/11/23 03:53:47;;;;;;;;;22.50;18.25;;;;;10.45;95.54;102300.22;5060337;28;45416;-77
2021/11/23 03:56:13;;;;;;;;;21.25;15.00;;;;;10.43;95.42;102304.72;5051920;28;45372;-76
2021/11/23 03:58:40;;;;;;;;;23.50;16.00;;;;;10.45;95.57;102301.09;5066676;28;45468;-76
2021/11/23 04:01:06;;;;;;;;;19.00;15.50;;;;;10.43;95.16;102300.28;5055160;28;45539;-75
2021/11/23 04:03:31;;;;;;;;;21.25;11.50;;;;;10.39;95.00;102305.75;5056426;28;47366;-76
2021/11/23 04:05:58;;;;;;;;;29.00;19.25;;;;;10.38;94.51;102315.44;5079143;28;45449;-76
2021/11/23 04:08:24;;;;;;;;;22.50;15.50;;;;;10.30;94.78;102306.13;5069122;27;45279;-76
2021/11/23 04:10:49;;;;;;;;;26.75;16.75;;;;;10.34;94.61;102316.53;5059346;28;45480;-76
2021/11/23 04:13:18;;;;;;;;;16.50;15.00;;;;;10.27;94.53;102312.41;5053762;28;45391;-76
2021/11/23 04:15:43;;;;;;;;;18.75;16.50;;;;;10.34;94.06;102321.81;5048823;28;45471;-76
2021/11/23 04:18:09;;;;;;;;;20.75;15.75;;;;;10.26;94.63;102323.91;5045404;28;45400;-76
2021/11/23 04:20:34;;;;;;;;;18.00;15.00;;;;;10.30;94.33;102324.63;5048436;28;45656;-76
2021/11/23 04:23:00;;;;;;;;;18.75;15.50;;;;;10.19;94.06;102329.50;5040533;28;45447;-76
2021/11/23 04:25:25;;;;;;;;;22.25;14.25;;;;;10.21;94.25;102330.28;5052508;28;45390;-76
2021/11/23 04:27:52;;;;;;;;;23.75;16.25;;;;;10.21;93.99;102335.56;5057751;28;45296;-76
2021/11/23 04:30:18;;;;;;;;;20.00;14.00;;;;;10.16;94.29;102330.44;5053273;28;45523;-76
2021/11/23 04:32:43;;;;;;;;;18.25;13.00;;;;;10.22;94.61;102330.22;5048173;28;45351;-76
2021/11/23 04:35:10;;;;;;;;;16.00;15.25;;;;;10.24;94.30;102314.31;5059048;28;45237;-76
2021/11/23 04:37:35;;;;;;;;;16.50;13.75;;;;;10.24;94.35;102312.53;5058868;28;45320;-76
2021/11/23 04:40:03;;;;;;;;;16.50;11.00;;;;;10.28;94.14;102316.78;5050531;28;45512;-76
2021/11/23 04:42:28;;;;;;;;;19.00;18.75;;;;;10.23;93.97;102321.38;5056019;28;45524;-76
2021/11/23 04:44:54;;;;;;;;;19.50;15.50;;;;;10.17;93.81;102324.25;5053571;28;45714;-76
2021/11/23 04:47:19;;;;;;;;;25.50;16.00;;;;;10.17;94.16;102332.16;5049480;28;45402;-76
2021/11/23 04:49:44;;;;;;;;;19.25;16.25;;;;;10.17;94.16;102331.31;5053870;28;45549;-76
2021/11/23 04:52:10;;;;;;;;;19.75;15.75;;;;;10.19;94.23;102329.50;5059435;28;46402;-75
2021/11/23 04:54:35;;;;;;;;;20.00;14.75;;;;;10.17;93.89;102332.16;5058550;28;45387;-76
2021/11/23 04:57:01;;;;;;;;;20.50;16.25;;;;;10.20;94.01;102341.78;5060676;28;45326;-75
2021/11/23 04:59:26;;;;;;;;;17.50;14.00;;;;;10.13;94.03;102341.13;5072675;28;45560;-76
2021/11/23 05:01:51;;;;;;;;;22.50;16.00;;;;;10.18;94.33;102335.69;5045342;28;45472;-76
2021/11/23 05:04:17;;;;;;;;;17.50;13.25;;;;;10.22;94.26;102329.34;5050988;28;45203;-76
2021/11/23 05:06:42;;;;;;;;;17.50;15.50;;;;;10.24;94.36;102333.66;5059051;28;45394;-75
2021/11/23 05:09:08;;;;;;;;;23.00;17.00;;;;;10.20;94.03;102339.13;5053238;28;45473;-75
2021/11/23 05:11:36;;;;;;;;;25.25;16.25;;;;;10.16;94.15;102329.56;5058891;28;46019;-75
2021/11/23 05:14:01;;;;;;;;;19.50;13.50;;;;;10.14;94.28;102335.78;5058989;28;45661;-75
2021/11/23 05:16:27;;;;;;;;;25.25;15.00;;;;;10.19;94.88;102334.78;5065266;28;45366;-75
2021/11/23 05:18:52;;;;;;;;;17.50;14.50;;;;;10.22;94.50;102339.91;5079244;28;45590;-75
2021/11/23 05:21:17;;;;;;;;;16.00;15.00;;;;;10.25;93.26;102340.66;5070140;27;45471;-75
2021/11/23 05:23:43;;;;;;;;;16.00;13.00;;;;;10.31;93.48;102332.47;5054654;28;45424;-75
2021/11/23 05:26:08;;;;;;;;;16.50;15.75;;;;;10.22;93.18;102339.91;5065205;28;45377;-75
2021/11/23 05:28:34;;;;;;;;;17.75;15.00;;;;;10.18;94.22;102338.34;5048503;28;45416;-75
2021/11/23 05:30:59;;;;;;;;;19.25;14.25;;;;;10.18;93.82;102341.84;5059053;28;46013;-75
2021/11/23 05:33:24;;;;;;;;;14.00;12.25;;;;;10.14;93.70;102343.69;5059932;28;45316;-75
2021/11/23 05:35:50;;;;;;;;;24.50;15.75;;;;;10.14;93.59;102341.06;5059443;28;45342;-75
2021/11/23 05:38:18;;;;;;;;;21.75;14.25;;;;;10.21;93.48;102346.97;5068214;28;45417;-75
2021/11/23 05:40:44;;;;;;;;;23.00;16.50;;;;;10.25;93.13;102358.28;5060844;28;45952;-75
2021/11/23 05:43:11;;;;;;;;;28.25;16.75;;;;;10.27;92.69;102361.72;5076316;28;45984;-75
2021/11/23 05:45:37;;;;;;;;;20.00;18.25;;;;;10.17;92.91;102352.41;5051893;28;45440;-75
2021/11/23 05:48:02;;;;;;;;;21.50;15.25;;;;;10.08;93.01;102359.78;5074512;28;45444;-75
2021/11/23 05:50:28;;;;;;;;;14.00;14.00;;;;;10.15;93.32;102360.41;5067356;28;45486;-75
2021/11/23 05:52:53;;;;;;;;;16.00;12.25;;;;;10.12;92.90;102358.72;5071425;28;45280;-75
2021/11/23 05:55:18;;;;;;;;;17.00;15.50;;;;;10.14;92.32;102362.16;5054183;28;45447;-75
2021/11/23 05:57:44;;;;;;;;;19.00;14.00;;;;;10.15;92.72;102365.66;5055994;28;45389;-75
2021/11/23 06:00:10;;;;;;;;;21.00;15.50;;;;;10.17;92.71;102368.25;5062534;28;45492;-75
2021/11/23 06:02:35;;;;;;;;;24.25;18.75;;;;;10.27;92.11;102359.09;5051009;28;45469;-75
2021/11/23 06:05:02;;;;;;;;;20.00;13.50;;;;;10.25;91.57;102367.06;5059624;28;45364;-75
2021/11/23 06:07:28;;;;;;;;;22.75;15.00;;;;;10.16;91.31;102367.41;5060194;28;45512;-75
2021/11/23 06:09:53;;;;;;;;;18.50;14.50;;;;;10.22;92.09;102368.94;5061502;28;45192;-75
2021/11/23 06:12:19;;;;;;;;;20.50;15.75;;;;;10.23;91.87;102371.53;5063731;28;45293;-75
2021/11/23 06:14:44;;;;;;;;;20.75;18.25;;;;;10.17;91.56;102374.41;5043007;28;46863;-75
2021/11/23 06:17:11;;;;;;;;;22.25;13.00;;;;;10.15;91.86;102365.66;5055713;28;45231;-75
2021/11/23 06:19:37;;;;;;;;;17.75;16.00;;;;;10.17;92.43;102370.91;5053471;28;46562;-75
2021/11/23 06:22:03;;;;;;;;;15.75;15.50;;;;;10.21;91.25;102370.72;5057768;28;45644;-75
2021/11/23 06:24:28;;;;;;;;;19.00;14.00;;;;;10.16;91.59;102358.63;5055520;28;45459;-76
2021/11/23 06:26:54;;;;;;;;;21.75;13.25;;;;;10.18;92.10;102364.72;5059546;28;46031;-76
2021/11/23 06:29:19;;;;;;;;;19.75;16.25;;;;;10.19;92.12;102364.69;5061706;28;47244;-75
2021/11/23 06:31:44;;;;;;;;;16.50;15.25;;;;;10.23;91.87;102373.31;5080116;28;45447;-75
2021/11/23 06:34:10;;;;;;;;;21.25;15.25;;;;;10.22;91.65;102368.94;5054339;27;45385;-75
2021/11/23 06:36:36;;;;;;;;;23.75;15.00;;;;;10.29;92.21;102365.16;5058868;28;45435;-75
2021/11/23 06:39:04;;;;;;;;;15.25;13.75;;;;;10.23;91.93;102358.34;5063901;28;46488;-75
2021/11/23 06:41:30;;;;;;;;;23.00;14.00;;;;;10.24;91.53;102367.97;5051545;28;45811;-75
2021/11/23 06:43:55;;;;;;;;;19.25;14.75;;;;;10.31;90.88;102380.00;5061473;28;45367;-75
2021/11/23 06:46:22;;;;;;;;;20.50;14.75;;;;;10.27;90.99;102377.56;5057873;28;45477;-75
2021/11/23 06:48:47;;;;;;;;;16.25;14.00;;;;;10.21;91.14;102386.56;5062752;28;46421;-74
2021/11/23 06:51:13;;;;;;;;;16.75;13.00;;;;;10.22;90.90;102382.16;5049381;28;45402;-75
2021/11/23 06:53:38;;;;;;;;;15.50;15.00;;;;;10.16;90.89;102391.16;5048831;28;45468;-75
2021/11/23 06:56:04;;;;;;;;;19.25;14.75;;;;;10.08;91.06;102391.47;5054629;28;45434;-76
2021/11/23 06:58:29;;;;;;;;;11.25;10.00;;;;;10.00;91.51;102408.50;5057287;28;45785;-75
2021/11/23 07:00:55;;;;;;;;;16.25;13.00;;;;;10.03;91.24;102405.75;5058471;28;46788;-76
2021/11/23 07:03:20;;;;;;;;;12.25;12.25;;;;;10.05;91.48;102401.25;5054083;28;45480;-75
2021/11/23 07:05:45;;;;;;;;;14.75;12.00;;;;;9.96;91.43;102401.63;5080283;27;45462;-76
2021/11/23 07:08:11;;;;;;;;;21.00;16.00;;;;;9.99;91.33;102399.75;5059244;28;46061;-76
2021/11/23 07:10:38;;;;;;;;;16.75;13.00;;;;;10.11;90.99;102398.38;5060208;28;45746;-75
2021/11/23 07:13:03;;;;;;;;;18.00;12.50;;;;;10.13;90.59;102409.75;5061224;28;46425;-76
2021/11/23 07:15:29;;;;;;;;;16.75;14.25;;;;;10.14;90.57;102407.03;5061535;28;45585;-75
2021/11/23 07:17:55;;;;;;;;;18.75;11.75;;;;;10.19;90.39;102400.78;5077912;28;45341;-75
2021/11/23 07:20:21;;;;;;;;;20.75;12.75;;;;;10.17;89.97;102411.34;5057879;28;45680;-76
2021/11/23 07:22:46;;;;;;;;;19.00;12.75;;;;;10.10;89.82;102405.47;5064361;28;45239;-76
2021/11/23 07:25:12;;;;;;;;;15.75;12.00;;;;;10.11;90.13;102417.72;5070634;28;45516;-76
2021/11/23 07:27:37;;;;;;;;;17.00;13.00;;;;;10.12;89.64;102423.84;5060435;28;46294;-76
2021/11/23 07:30:05;;;;;;;;;16.75;12.00;;;;;10.09;89.76;102413.44;5060059;28;45302;-76
2021/11/23 07:32:30;;;;;;;;;13.50;12.00;;;;;10.12;89.70;102422.06;5061463;28;45500;-77
2021/11/23 07:34:56;;;;;;;;;18.25;13.25;;;;;10.12;89.27;102435.28;5060270;28;45290;-77
2021/11/23 07:37:21;;;;;;;;;16.50;13.00;;;;;10.18;89.26;102434.22;5061485;28;47818;-76
2021/11/23 07:39:47;;;;;;;;;17.00;11.50;;;;;10.16;88.81;102440.44;5061471;28;45319;-76
2021/11/23 07:42:13;;;;;;;;;15.75;14.00;;;;;10.14;88.69;102448.41;5060388;28;45313;-77
2021/11/23 07:44:39;;;;;;;;;16.75;12.00;;;;;10.25;88.47;102448.03;5058839;28;45799;-77
2021/11/23 07:47:04;;;;;;;;;20.25;12.00;;;;;10.28;89.25;102443.53;5060179;28;46488;-76
2021/11/23 07:49:29;;;;;;;;;12.75;11.00;;;;;10.33;88.77;102448.59;5059494;28;45418;-76
2021/11/23 07:51:55;;;;;;;;;15.75;13.00;;;;;10.37;88.60;102445.78;5060346;28;45760;-76
2021/11/23 07:54:20;;;;;;;;;13.25;8.75;;;;;10.71;88.47;102449.72;5060382;28;45341;-76
2021/11/23 07:56:45;;;;;;;;;19.00;12.50;;;;;10.63;87.03;102455.31;5061249;28;46534;-76
2021/11/23 07:59:12;;;;;;;;;18.50;15.75;;;;;10.49;87.79;102455.00;5080473;28;45163;-76
2021/11/23 08:01:38;;;;;;;;;16.00;10.00;;;;;10.50;87.88;102456.72;5080330;27;45426;-76
2021/11/23 08:04:04;;;;;;;;;10.50;9.25;;;;;10.52;87.46;102457.53;5080392;28;45359;-76
2021/11/23 08:06:29;;;;;;;;;23.00;16.25;;;;;10.51;87.16;102450.50;5080330;28;45646;-76
2021/11/23 08:08:55;;;;;;;;;20.00;13.50;;;;;10.57;87.39;102457.31;5054595;28;45475;-76
2021/11/23 08:11:20;;;;;;;;;15.25;12.00;;;;;10.64;87.42;102467.59;5052847;28;45462;-76
2021/11/23 08:13:46;;;;;;;;;18.00;13.00;;;;;10.70;86.87;102467.34;5083125;27;45397;-76
2021/11/23 08:16:11;;;;;;;;;17.25;11.75;;;;;10.72;87.37;102472.56;5079954;28;46360;-76
2021/11/23 08:18:36;;;;;;;;;20.50;12.50;;;;;10.74;86.74;102462.81;5080007;27;45440;-76
2021/11/23 08:21:03;;;;;;;;;22.50;8.50;;;;;10.74;86.14;102470.75;5078882;28;45326;-76
2021/11/23 08:23:29;;;;;;;;;23.75;16.00;;;;;10.77;85.81;102474.09;5080281;28;45525;-76
2021/11/23 08:25:55;;;;;;;;;13.00;11.00;;;;;10.86;86.16;102475.50;5079919;28;45268;-76
2021/11/23 08:28:23;;;;;;;;;12.00;9.00;;;;;10.87;85.34;102467.50;5080164;28;45326;-76
2021/11/23 08:30:50;;;;;;;;;15.00;13.50;;;;;10.88;85.08;102461.31;5079929;27;45425;-76
2021/11/23 08:33:15;;;;;;;;;13.00;10.00;;;;;10.94;85.18;102465.47;5079994;28;45452;-76
2021/11/23 08:35:41;;;;;;;;;19.00;13.75;;;;;10.98;84.58;102480.28;5079752;28;46574;-76
2021/11/23 08:38:06;;;;;;;;;15.25;13.00;;;;;11.02;84.70;102467.78;5065408;28;45410;-76
2021/11/23 08:40:32;;;;;;;;;13.25;9.75;;;;;11.07;84.50;102469.34;5058284;28;45425;-76
2021/11/23 08:42:58;;;;;;;;;12.50;9.00;;;;;11.09;83.46;102475.44;5059389;28;45430;-76
2021/11/23 08:45:24;;;;;;;;;12.00;10.00;;;;;11.27;83.64;102467.63;5059203;28;45657;-76
2021/11/23 08:47:49;;;;;;;;;13.25;10.00;;;;;11.66;83.92;102465.88;5059280;28;45343;-77
2021/11/23 08:50:18;;;;;;;;;12.25;8.25;;;;;11.86;83.60;102470.31;5059498;28;45289;-77
2021/11/23 08:52:43;;;;;;;;;15.00;9.25;;;;;11.93;81.93;102464.66;5058236;28;45525;-77
2021/11/23 08:55:09;;;;;;;;;13.25;9.00;;;;;12.04;80.59;102468.59;5055274;28;47125;-77
2021/11/23 08:57:35;;;;;;;;;13.50;7.50;;;;;12.03;79.61;102473.03;5066592;28;45423;-76
2021/11/23 09:00:20;;;;;;;;;10.00;8.00;;;;;12.17;79.51;102467.13;5079742;28;45442;-76
2021/11/23 09:02:49;;;;;;;;;13.75;9.50;;;;;12.29;78.22;102463.91;5083294;28;45436;-77
2021/11/23 09:05:16;;;;;;;;;12.75;9.00;;;;;12.32;77.88;102466.38;5083073;28;46347;-77
2021/11/23 09:07:42;;;;;;;;;11.50;8.00;;;;;12.33;77.09;102466.31;5069780;27;45608;-77
2021/11/23 09:10:16;;;;;;;;;13.25;8.00;;;;;12.43;76.82;102468.53;5058702;28;45477;-77
2021/11/23 09:12:41;;;;;;;;;10.50;8.50;;;;;12.49;76.29;102461.13;5064477;28;45431;-77
2021/11/23 09:15:07;;;;;;;;;9.25;8.00;;;;;12.55;75.69;102462.66;5082913;28;45338;-77
2021/11/23 09:17:33;;;;;;;;;7.00;7.00;;;;;12.55;73.82;102460.00;5082595;28;45520;-77
2021/11/23 09:19:58;;;;;;;;;6.75;6.00;;;;;12.51;74.38;102474.31;5083188;28;45263;-77
2021/11/23 09:22:23;;;;;;;;;14.00;7.00;;;;;12.42;73.18;102469.47;5082926;27;45501;-77
2021/11/23 09:24:49;;;;;;;;;9.50;8.25;;;;;12.42;71.42;102472.13;5083328;27;45437;-77
2021/11/23 09:27:14;;;;;;;;;8.75;7.00;;;;;12.47;70.64;102478.06;5081540;28;45318;-77
2021/11/23 09:29:40;;;;;;;;;11.75;7.25;;;;;12.54;71.75;102474.19;5082852;28;45791;-77
2021/11/23 09:32:07;;;;;;;;;9.75;7.25;;;;;12.50;70.52;102481.41;5082874;28;45431;-77
2021/11/23 09:34:33;;;;;;;;;7.00;5.00;;;;;12.46;67.50;102471.91;5082807;28;45350;-77
2021/11/23 09:36:58;;;;;;;;;9.50;3.00;;;;;12.60;69.59;102480.03;5080645;28;45286;-77
2021/11/23 09:39:24;;;;;;;;;8.00;5.00;;;;;12.71;68.35;102480.38;5048561;28;45518;-77
2021/11/23 09:41:49;;;;;;;;;8.50;5.25;;;;;12.83;68.82;102483.38;5064700;28;45437;-77
2021/11/23 09:44:15;;;;;;;;;8.25;6.25;;;;;12.97;68.09;102473.78;5062224;28;45878;-77
2021/11/23 09:46:40;;;;;;;;;6.25;3.00;;;;;13.01;66.92;102471.84;5061889;28;45311;-77
2021/11/23 09:49:07;;;;;;;;;4.50;3.00;;;;;13.09;66.85;102480.28;5062451;28;45390;-77
2021/11/23 09:51:35;;;;;;;;;5.25;3.00;;;;;13.19;66.72;102476.25;5062300;28;45307;-77
2021/11/23 09:54:04;;;;;;;;;6.00;3.50;;;;;13.37;67.11;102477.97;5060816;28;46523;-77
2021/11/23 09:56:30;;;;;;;;;5.25;2.75;;;;;13.47;65.49;102476.53;5064392;28;45534;-77
2021/11/23 09:58:56;;;;;;;;;2.75;2.75;;;;;13.62;63.40;102476.69;5082526;27;45283;-77
2021/11/23 10:01:28;;;;;;;;;4.00;2.50;;;;;14.03;63.86;102477.97;5081987;27;45460;-77
2021/11/23 10:03:56;;;;;;;;;5.50;3.25;;;;;14.29;63.19;102473.06;5082197;27;46084;-77
2021/11/23 10:06:25;;;;;;;;;3.75;2.00;;;;;14.55;61.23;102473.34;5082319;28;45367;-77
2021/11/23 10:08:53;;;;;;;;;2.75;2.75;;;;;14.94;61.18;102472.81;5064305;28;45409;-77
2021/11/23 10:11:31;;;;;;;;;3.00;3.00;;;;;15.35;60.91;102461.53;5047690;28;45353;-77
2021/11/23 10:14:05;;;;;;;;;6.25;3.75;;;;;15.70;58.84;102456.75;5062790;28;45256;-77
2021/11/23 10:16:39;;;;;;;;;4.00;4.00;;;;;15.89;54.43;102457.34;5082117;28;45169;-77
2021/11/23 10:19:10;;;;;;;;;5.75;4.50;;;;;16.17;55.58;102450.25;5082230;27;45487;-77
2021/11/23 10:21:46;;;;;;;;;4.00;3.75;;;;;16.46;56.86;102455.44;5082083;28;45449;-78
2021/11/23 10:24:12;;;;;;;;;4.25;4.25;;;;;16.68;55.87;102457.56;5081943;28;45606;-78
2021/11/23 10:26:37;;;;;;;;;7.25;5.00;;;;;16.93;55.05;102448.81;5082022;28;45409;-78
2021/11/23 10:29:06;;;;;;;;;6.00;5.00;;;;;17.13;54.70;102448.28;5080809;27;45188;-77
2021/11/23 10:31:35;;;;;;;;;5.25;4.50;;;;;17.29;52.44;102453.47;5080470;28;45782;-77
2021/11/23 10:34:04;;;;;;;;;5.25;2.75;;;;;17.42;51.61;102458.78;5081751;28;45453;-78
2021/11/23 10:36:35;;;;;;;;;6.00;5.25;;;;;17.82;51.42;102448.88;5080498;28;45458;-77
2021/11/23 10:39:07;;;;;;;;;5.00;5.00;;;;;17.86;48.99;102453.88;5082151;28;45409;-78
2021/11/23 10:41:33;;;;;;;;;4.75;3.00;;;;;17.83;50.71;102454.13;5081560;28;45373;-78
2021/11/23 10:43:58;;;;;;;;;2.25;2.25;;;;;17.84;50.28;102444.28;5081913;28;45606;-78
2021/11/23 10:46:24;;;;;;;;;6.25;3.75;;;;;17.89;50.75;102447.47;5081464;27;45314;-77
2021/11/23 10:48:54;;;;;;;;;4.50;4.50;;;;;18.08;50.25;102447.03;5081961;28;45306;-77
2021/11/23 10:51:21;;;;;;;;;7.00;5.00;;;;;18.13;48.95;102437.69;5081562;28;45497;-78
2021/11/23 10:53:47;;;;;;;;;7.50;3.50;;;;;18.01;48.72;102432.41;5081759;28;46136;-77
2021/11/23 10:56:18;;;;;;;;;4.50;2.00;;;;;18.13;48.34;102432.34;5073373;28;45337;-77
2021/11/23 10:58:46;;;;;;;;;5.25;3.75;;;;;18.15;48.86;102426.88;5061553;28;45335;-77
2021/11/23 11:01:13;;;;;;;;;6.00;3.25;;;;;18.24;47.84;102426.22;5055291;28;45446;-78
2021/11/23 11:03:40;;;;;;;;;3.75;3.75;;;;;18.27;47.49;102421.50;5054982;28;45508;-77
2021/11/23 11:06:07;;;;;;;;;7.25;5.00;;;;;18.24;46.75;102413.69;5059852;28;45343;-77
2021/11/23 11:08:43;;;;;;;;;2.50;2.50;;;;;18.22;46.52;102407.59;5061283;28;45178;-77